Time;durP1;ratioP1;P1;durP2;ratioP2;P2;SDS_P1;SDS_P2;PMS_P1;PMS_P2;Temp;Humidity;BMP_temperature;BMP_pressure;BME280_temperature;BME280_humidity;BME280_pressure;Samples;Min_cycle;Max_cycle;Signal;HPM_P1;HPM_P2
2022/04/07 00:03:21;;;;;;;;;;;-2.00;99.90;212.10;228463.00;;;;3;75025515;78027536;-59
2022/04/07 00:07:40;;;;;;;;;;;-2.00;99.90;212.10;228463.00;;;;3;75026624;82529933;-60
2022/04/07 00:12:04;;;;;;;;;;;-1.90;99.90;212.10;228463.00;;;;3;82527782;82530731;-59
2022/04/07 00:16:30;;;;;;;;;;;-1.90;99.90;212.10;228463.00;;;;3;78026303;82528385;-59
2022/04/07 00:20:52;;;;;;;;;;;-1.90;99.90;212.10;228463.00;;;;3;75024924;78026594;-60
2022/04/07 00:25:11;;;;;;;;;;;-1.80;99.90;212.10;228463.00;;;;3;75025510;82526675;-59
2022/04/07 00:29:35;;;;;;;;;;;-1.90;99.90;212.10;228463.00;;;;3;82525844;82529907;-59
2022/04/07 00:34:07;;;;;;;;;;;-1.90;99.90;212.10;228463.00;;;;3;78026490;84026640;-60
2022/04/07 00:38:27;;;;;;;;;;;-1.90;99.90;212.10;228463.00;;;;3;75026090;78028801;-59
2022/04/07 00:42:46;;;;;;;;;;;-1.90;99.90;212.10;228463.00;;;;3;75025696;82525797;-60
2022/04/07 00:47:10;;;;;;;;;;;-1.90;99.90;212.10;228463.00;;;;3;82527116;82528801;-63
2022/04/07 00:51:39;;;;;;;;;;;-1.90;99.90;212.10;228463.00;;;;3;78028607;82527082;-63
2022/04/07 00:56:00;;;;;;;;;;;-1.80;99.90;212.10;228463.00;;;;3;75026283;78028831;-58
2022/04/07 01:00:20;;;;;;;;;;;-1.80;99.90;212.10;228463.00;;;;3;75025654;82528039;-60
2022/04/07 01:04:44;;;;;;;;;;;-1.80;99.90;212.10;228463.00;;;;3;82526417;82529080;-61
2022/04/07 01:09:11;;;;;;;;;;;-1.80;99.90;212.10;228463.00;;;;3;78025944;82527384;-57
2022/04/07 01:13:44;;;;;;;;;;;-1.80;99.90;212.10;228463.00;;;;3;75025063;78027833;-59
2022/04/07 01:18:03;;;;;;;;;;;-1.70;99.90;212.10;228463.00;;;;3;75025361;82527036;-58
2022/04/07 01:22:27;;;;;;;;;;;-1.70;99.90;212.10;228463.00;;;;3;82527375;82528871;-60
2022/04/07 01:26:54;;;;;;;;;;;-1.70;99.90;212.10;228463.00;;;;3;78028544;82527182;-59
2022/04/07 01:31:13;;;;;;;;;;;-1.80;99.90;212.10;228463.00;;;;3;75025802;78025384;-59
2022/04/07 01:35:33;;;;;;;;;;;-1.80;99.90;212.10;228463.00;;;;3;75024356;82527277;-58
2022/04/07 01:39:58;;;;;;;;;;;-1.80;99.90;212.10;228463.00;;;;3;82527742;82528173;-58
2022/04/07 01:44:25;;;;;;;;;;;-1.80;99.90;212.10;228463.00;;;;3;78028067;82528743;-60
2022/04/07 01:48:45;;;;;;;;;;;-1.80;99.90;212.10;228463.00;;;;3;75023399;78027636;-61
2022/04/07 01:53:04;;;;;;;;;;;-1.70;99.90;212.10;228463.00;;;;3;75026148;82527672;-61
2022/04/07 01:57:28;;;;;;;;;;;-1.70;99.90;212.10;228463.00;;;;3;82527069;82527768;-61
2022/04/07 02:01:58;;;;;;;;;;;-1.60;99.90;212.10;228463.00;;;;3;78029359;84030326;-61
2022/04/07 02:04:59;;;;;;;;;;;-1.50;99.90;-1.70;97549.00;;;;3;75024814;78025479;-61
2022/04/07 02:09:59;;;;;;;;;;;-1.50;99.90;212.10;228463.00;;;;1278243;30;82527392;-61
2022/04/07 02:14:22;;;;;;;;;;;-1.40;99.90;212.10;228463.00;;;;3;82527673;82528240;-60
2022/04/07 02:17:03;;;;;;;;;;;-1.40;99.90;-1.70;97539.00;;;;3;78027956;81090393;-60
2022/04/07 02:19:30;;;;;;;0.50;0.50;;;-1.50;99.90;-1.90;97538.00;;;;4636897;30;88074;-59
2022/04/07 02:21:56;;;;;;;1.40;1.30;;;-1.40;99.90;-2.00;97539.00;;;;4636853;30;87061;-59
2022/04/07 02:24:23;;;;;;;0.98;0.95;;;-1.40;99.90;-1.90;97537.00;;;;4634458;30;86963;-59
2022/04/07 02:26:49;;;;;;;0.98;0.88;;;-1.40;99.90;-1.90;97546.00;;;;4630337;30;87761;-59
2022/04/07 02:29:15;;;;;;;1.42;1.20;;;-1.30;99.90;-1.90;97556.00;;;;4631541;30;87113;-60
2022/04/07 02:31:41;;;;;;;0.73;0.73;;;-1.30;99.90;-1.90;97546.00;;;;4631083;30;88009;-61
2022/04/07 02:34:07;;;;;;;0.70;0.70;;;-1.30;99.90;-1.80;97560.00;;;;4631666;30;87592;-60
2022/04/07 02:36:33;;;;;;;1.52;1.15;;;-1.30;99.90;-1.80;97548.00;;;;4631375;30;87407;-60
2022/04/07 02:38:59;;;;;;;1.60;1.50;;;-1.20;99.90;-1.70;97563.00;;;;4632339;30;87000;-60
2022/04/07 02:41:25;;;;;;;2.45;2.15;;;-1.20;99.90;-1.70;97561.00;;;;4631128;30;87586;-61
2022/04/07 02:43:51;;;;;;;0.60;0.60;;;-1.20;99.90;-1.70;97557.00;;;;4631661;30;87624;-59
2022/04/07 02:46:17;;;;;;;1.23;1.17;;;-1.10;99.90;-1.60;97568.00;;;;4632412;30;88408;-61
2022/04/07 02:48:43;;;;;;;1.58;1.10;;;-1.10;99.90;-1.60;97554.00;;;;4632742;30;86380;-60
2022/04/07 02:51:09;;;;;;;4.28;3.08;;;-1.10;99.90;-1.50;97559.00;;;;4632416;30;87146;-56
2022/04/07 02:53:35;;;;;;;1.00;0.95;;;-1.00;99.90;-1.50;97552.00;;;;4632077;30;87569;-58
2022/04/07 02:56:02;;;;;;;2.22;1.63;;;-0.90;99.90;-1.40;97561.00;;;;4630142;30;88962;-59
2022/04/07 02:58:28;;;;;;;1.20;1.20;;;-0.90;99.90;-1.40;97561.00;;;;4629876;30;87103;-60
2022/04/07 03:00:54;;;;;;;7.18;1.63;;;-0.90;99.90;-1.30;97558.00;;;;4631641;30;87068;-62
2022/04/07 03:03:20;;;;;;;4.28;2.55;;;-0.80;99.90;-1.30;97553.00;;;;4631603;30;87735;-64
2022/04/07 03:05:46;;;;;;;1.00;1.00;;;-0.80;99.90;-1.30;97543.00;;;;4634938;30;87372;-63
2022/04/07 03:08:12;;;;;;;2.13;1.33;;;-0.70;99.90;-1.20;97554.00;;;;4634572;30;87518;-60
2022/04/07 03:10:39;;;;;;;4.07;2.30;;;-0.70;99.90;-1.20;97562.00;;;;4634408;30;87637;-60
2022/04/07 03:13:05;;;;;;;1.45;1.20;;;-0.70;99.90;-1.20;97560.00;;;;4636811;30;86943;-60
2022/04/07 03:15:31;;;;;;;3.17;2.70;;;-0.60;99.90;-1.10;97563.00;;;;4633628;30;87436;-59
2022/04/07 03:17:57;;;;;;;1.80;1.40;;;-0.60;99.90;-1.10;97561.00;;;;4633308;30;87370;-57
2022/04/07 03:20:23;;;;;;;4.85;2.90;;;-0.60;99.90;-1.00;97564.00;;;;4633131;30;88416;-62
2022/04/07 03:22:49;;;;;;;4.50;2.75;;;-0.50;99.90;-1.00;97553.00;;;;4634706;30;87531;-61
2022/04/07 03:25:15;;;;;;;2.90;2.28;;;-0.50;99.90;-0.90;97551.00;;;;4633547;30;88101;-62
2022/04/07 03:27:41;;;;;;;4.30;3.15;;;-0.40;99.90;-0.90;97551.00;;;;4633489;30;87203;-56
2022/04/07 03:30:09;;;;;;;2.47;1.75;;;-0.40;99.90;-0.80;97558.00;;;;4634190;30;87206;-64
2022/04/07 03:32:35;;;;;;;9.55;8.65;;;-0.30;99.90;-0.80;97543.00;;;;4633470;30;87640;-64
2022/04/07 03:35:01;;;;;;;13.10;11.65;;;-0.20;99.90;-0.70;97546.00;;;;4634416;30;87270;-65
2022/04/07 03:37:28;;;;;;;14.15;12.10;;;-0.20;99.90;-0.60;97544.00;;;;4633646;30;87313;-65
2022/04/07 03:39:55;;;;;;;13.07;11.77;;;-0.20;99.90;-0.60;97549.00;;;;4633739;30;87245;-60
2022/04/07 03:42:21;;;;;;;14.10;12.70;;;-0.10;99.90;-0.50;97546.00;;;;4631611;30;87747;-61
2022/04/07 03:44:47;;;;;;;14.68;12.05;;;-0.10;99.90;-0.50;97538.00;;;;4632568;30;88026;-61
2022/04/07 03:47:13;;;;;;;14.32;12.82;;;0.00;99.90;-0.40;97545.00;;;;4633594;30;87452;-62
2022/04/07 03:49:39;;;;;;;13.38;11.98;;;0.00;99.90;-0.40;97536.00;;;;4634236;30;87415;-62
2022/04/07 03:52:06;;;;;;;14.02;12.65;;;0.00;99.90;-0.30;97529.00;;;;4632938;30;87770;-62
2022/04/07 03:54:32;;;;;;;16.10;12.25;;;0.10;99.90;-0.20;97527.00;;;;4633218;30;87321;-62
2022/04/07 03:56:58;;;;;;;12.90;11.60;;;0.20;99.90;-0.20;97523.00;;;;4632041;30;87167;-61
2022/04/07 03:59:25;;;;;;;13.30;11.90;;;0.20;99.90;-0.10;97532.00;;;;4632966;30;87424;-61
2022/04/07 04:01:51;;;;;;;12.50;11.20;;;0.30;99.90;0.00;97529.00;;;;4633243;30;86969;-61
2022/04/07 04:04:20;;;;;;;15.95;11.77;;;0.40;99.90;0.00;97528.00;;;;4633061;30;87027;-62
2022/04/07 04:06:46;;;;;;;12.45;11.23;;;0.40;99.90;0.10;97528.00;;;;4632400;30;87117;-62
2022/04/07 04:09:12;;;;;;;13.15;11.75;;;0.50;99.90;0.20;97533.00;;;;4633056;30;88078;-61
2022/04/07 04:11:38;;;;;;;12.30;11.10;;;0.60;99.90;0.30;97528.00;;;;4640039;30;117037;-63
2022/04/07 04:14:05;;;;;;;14.50;11.35;;;0.70;99.90;0.40;97526.00;;;;4498311;30;4372177;-61
2022/04/07 04:16:31;;;;;;;11.93;10.73;;;0.70;99.90;0.40;97535.00;;;;4637164;30;87782;-60
2022/04/07 04:18:58;;;;;;;13.00;11.40;;;0.80;99.90;0.50;97536.00;;;;4635539;30;87408;-60
2022/04/07 04:21:24;;;;;;;12.52;10.73;;;0.90;99.90;0.60;97533.00;;;;4634514;30;87622;-61
2022/04/07 04:23:50;;;;;;;15.30;10.68;;;0.90;99.90;0.60;97532.00;;;;4633374;30;88526;-61
2022/04/07 04:26:16;;;;;;;12.65;10.77;;;1.00;99.90;0.60;97527.00;;;;4633241;30;86349;-61
2022/04/07 04:28:42;;;;;;;11.55;9.65;;;1.00;99.90;212.10;228463.00;;;;4671101;30;87184;-62
2022/04/07 04:31:08;;;;;;;12.80;9.02;;;1.10;99.90;212.10;228463.00;;;;4708022;30;20076;-61
2022/04/07 04:33:34;;;;;;;12.43;8.00;;;1.30;99.90;212.10;228463.00;;;;4708723;30;20088;-62
2022/04/07 04:36:00;;;;;;;9.68;7.70;;;1.30;99.90;212.10;228463.00;;;;4707159;30;20045;-62
2022/04/07 04:38:27;;;;;;;9.70;7.65;;;1.50;99.90;212.10;228463.00;;;;4698069;30;20050;-62
2022/04/07 04:40:53;;;;;;;9.30;7.32;;;1.50;99.90;212.10;228463.00;;;;4707416;30;20050;-61
2022/04/07 04:43:19;;;;;;;10.00;7.68;;;1.60;99.90;212.10;228463.00;;;;4707747;30;20225;-62
2022/04/07 04:45:45;;;;;;;10.32;8.18;;;1.60;99.90;212.10;228463.00;;;;4708525;30;20046;-62
2022/04/07 04:48:11;;;;;;;8.75;6.70;;;1.70;99.90;212.10;228463.00;;;;4707855;30;20470;-62
2022/04/07 04:50:37;;;;;;;8.13;6.47;;;1.80;99.90;1.60;97538.00;;;;4669427;30;86240;-61
2022/04/07 04:53:04;;;;;;;10.20;7.00;;;1.80;99.90;1.60;97534.00;;;;4632626;30;87327;-63
2022/04/07 04:55:30;;;;;;;9.30;6.35;;;1.80;99.90;1.50;97530.00;;;;4633235;30;87131;-61
2022/04/07 04:57:56;;;;;;;8.23;7.13;;;1.80;99.90;1.60;97526.00;;;;4632251;30;88555;-63
2022/04/07 05:00:22;;;;;;;8.50;6.30;;;1.80;99.90;1.60;97528.00;;;;4631574;30;88881;-62
2022/04/07 05:02:48;;;;;;;9.63;6.82;;;1.80;99.90;1.60;97530.00;;;;4632834;30;87325;-63
2022/04/07 05:05:14;;;;;;;7.55;6.60;;;1.80;99.90;1.60;97520.00;;;;4635789;30;87078;-62
2022/04/07 05:07:40;;;;;;;8.55;6.45;;;1.80;99.90;1.70;97527.00;;;;4632505;30;87630;-61
2022/04/07 05:10:07;;;;;;;7.28;6.15;;;1.90;99.90;1.80;97524.00;;;;4631904;30;87527;-61
2022/04/07 05:12:34;;;;;;;7.53;6.25;;;1.90;99.90;1.80;97528.00;;;;4632153;30;88527;-63
2022/04/07 05:15:00;;;;;;;8.85;6.80;;;1.90;99.90;1.80;97522.00;;;;4633081;30;86399;-63
2022/04/07 05:17:26;;;;;;;11.10;6.82;;;1.90;99.90;1.80;97536.00;;;;4632886;30;87233;-62
2022/04/07 05:19:52;;;;;;;12.05;7.32;;;1.90;99.90;1.70;97522.00;;;;4631981;30;87687;-61
2022/04/07 05:22:18;;;;;;;7.22;6.35;;;1.80;99.90;1.60;97527.00;;;;4631703;30;87926;-62
2022/04/07 05:24:45;;;;;;;8.23;6.60;;;1.70;99.90;1.50;97516.00;;;;4627018;30;87546;-62
2022/04/07 05:27:11;;;;;;;8.00;6.80;;;1.60;99.90;1.50;97523.00;;;;4631566;30;87034;-61
2022/04/07 05:29:37;;;;;;;8.25;7.03;;;1.60;99.90;1.60;97527.00;;;;4632376;30;87058;-63
2022/04/07 05:32:04;;;;;;;11.95;7.70;;;1.70;99.90;1.60;97530.00;;;;4634511;30;87522;-63
2022/04/07 05:34:30;;;;;;;8.77;6.93;;;1.80;99.90;1.60;97517.00;;;;4633023;30;87123;-61
2022/04/07 05:36:56;;;;;;;8.95;6.75;;;1.80;99.90;1.60;97517.00;;;;4632746;30;87361;-61
2022/04/07 05:39:23;;;;;;;9.95;6.80;;;1.70;99.90;1.60;97512.00;;;;4632081;30;86871;-63
2022/04/07 05:41:49;;;;;;;10.35;6.93;;;1.80;99.90;1.60;97497.00;;;;4631450;30;87170;-60
2022/04/07 05:44:15;;;;;;;7.93;6.55;;;1.80;99.90;1.60;97501.00;;;;4631814;30;87117;-62
2022/04/07 05:46:41;;;;;;;8.57;6.55;;;1.80;99.90;1.50;97490.00;;;;4630774;30;88022;-62
2022/04/07 05:49:10;;;;;;;10.57;7.75;;;1.70;99.90;1.50;97484.00;;;;4631748;30;87880;-62
2022/04/07 05:51:37;;;;;;;7.65;6.47;;;1.60;99.90;1.50;97488.00;;;;4631168;30;88395;-61
2022/04/07 05:54:04;;;;;;;8.45;6.63;;;1.60;99.90;1.50;97480.00;;;;4631058;30;88092;-61
2022/04/07 05:56:30;;;;;;;8.48;6.38;;;1.60;99.90;1.50;97467.00;;;;4631795;30;88705;-61
2022/04/07 05:58:56;;;;;;;7.50;6.13;;;1.70;99.90;1.50;97453.00;;;;4631477;30;87686;-62
2022/04/07 06:01:22;;;;;;;9.93;7.15;;;1.70;99.90;1.50;97462.00;;;;4630808;30;87429;-61
2022/04/07 06:03:48;;;;;;;10.68;7.72;;;1.70;99.90;1.50;97455.00;;;;4623366;30;86725;-61
2022/04/07 06:06:15;;;;;;;8.20;7.35;;;1.70;99.90;1.50;97441.00;;;;4632200;30;87241;-62
2022/04/07 06:08:41;;;;;;;10.23;7.38;;;1.60;99.90;1.40;97439.00;;;;4632110;30;87824;-61
2022/04/07 06:11:07;;;;;;;10.55;7.72;;;1.60;99.90;1.30;97442.00;;;;4631032;30;88581;-61
2022/04/07 06:13:34;;;;;;;10.65;8.40;;;1.40;99.90;1.30;97443.00;;;;4625831;30;87183;-62
2022/04/07 06:16:01;;;;;;;10.50;8.43;;;1.40;99.90;1.30;97446.00;;;;4630946;30;88041;-61
2022/04/07 06:18:27;;;;;;;10.48;8.38;;;1.40;99.90;1.30;97454.00;;;;4631723;30;88420;-61
2022/04/07 06:20:53;;;;;;;12.27;8.95;;;1.40;99.90;1.30;97441.00;;;;4631352;30;87340;-61
2022/04/07 06:23:20;;;;;;;12.55;8.95;;;1.40;99.90;1.30;97443.00;;;;4632253;30;87035;-61
2022/04/07 06:25:46;;;;;;;11.55;9.60;;;1.40;99.90;1.20;97433.00;;;;4632758;30;87191;-61
2022/04/07 06:28:12;;;;;;;9.98;8.95;;;1.40;99.90;1.20;97436.00;;;;4631712;30;87057;-62
2022/04/07 06:30:39;;;;;;;12.05;9.55;;;1.40;99.90;1.30;97452.00;;;;4630734;30;87445;-62
2022/04/07 06:33:05;;;;;;;11.48;9.23;;;1.40;99.90;1.30;97446.00;;;;4633283;30;87176;-61
2022/04/07 06:35:31;;;;;;;11.38;9.43;;;1.50;99.90;1.40;97445.00;;;;4631010;30;88462;-61
2022/04/07 06:37:57;;;;;;;10.32;9.23;;;1.50;99.90;1.30;97434.00;;;;4629022;30;87579;-61
2022/04/07 06:40:28;;;;;;;12.40;11.10;;;1.50;99.90;1.30;97441.00;;;;4633081;30;87474;-61
2022/04/07 06:42:57;;;;;;;11.57;10.20;;;1.40;99.90;1.30;97419.00;;;;4632011;30;87003;-61
2022/04/07 06:45:25;;;;;;;10.90;9.68;;;1.50;99.90;1.40;97437.00;;;;4632826;30;87037;-62
2022/04/07 06:47:51;;;;;;;11.10;9.95;;;1.60;99.90;1.40;97428.00;;;;4633944;30;87875;-61
2022/04/07 06:50:19;;;;;;;12.75;9.90;;;1.60;99.90;1.40;97438.00;;;;4634869;30;87498;-61
2022/04/07 06:52:46;;;;;;;11.85;10.50;;;1.60;99.90;1.40;97425.00;;;;4634610;30;86279;-61
2022/04/07 06:55:14;;;;;;;11.57;10.20;;;1.60;99.90;1.40;97424.00;;;;4632653;30;87522;-60
2022/04/07 06:57:58;;;;;;;10.05;9.02;;;1.70;99.90;1.40;97419.00;;;;4632564;30;87675;-62
2022/04/07 07:00:30;;;;;;;10.35;9.27;;;1.60;99.90;1.40;97425.00;;;;4632650;30;88959;-61
2022/04/07 07:03:00;;;;;;;10.77;9.68;;;1.70;99.90;1.40;97431.00;;;;4634200;30;87002;-61
2022/04/07 07:05:30;;;;;;;9.80;8.80;;;1.70;99.90;1.40;97424.00;;;;4634511;30;87118;-60
2022/04/07 07:07:57;;;;;;;11.95;9.43;;;1.70;99.90;1.50;97438.00;;;;4634118;30;88186;-61
2022/04/07 07:10:30;;;;;;;12.65;10.60;;;1.70;99.90;1.50;97425.00;;;;4633994;30;87436;-61
2022/04/07 07:12:59;;;;;;;9.23;8.20;;;1.80;99.90;212.10;228463.00;;;;4632654;30;87125;-60
2022/04/07 07:15:26;;;;;;;9.50;8.43;;;1.90;99.90;212.10;228463.00;;;;4633854;30;87051;-62
2022/04/07 07:17:52;;;;;;;10.10;8.95;;;1.90;99.90;1.70;97435.00;;;;4634509;30;87494;-61
2022/04/07 07:20:18;;;;;;;8.40;7.28;;;1.80;99.90;1.60;97415.00;;;;4632811;30;87100;-62
2022/04/07 07:22:45;;;;;;;9.85;7.20;;;1.80;99.90;1.70;97419.00;;;;4634534;30;87037;-62
2022/04/07 07:25:12;;;;;;;9.65;7.72;;;1.80;99.90;1.70;97423.00;;;;4636258;30;88054;-61
2022/04/07 07:27:41;;;;;;;9.40;7.10;;;1.90;99.90;1.80;97408.00;;;;4632203;30;87796;-61
2022/04/07 07:30:11;;;;;;;10.07;6.65;;;2.00;99.90;1.90;97414.00;;;;4634170;30;87328;-61
2022/04/07 07:32:38;;;;;;;8.75;6.70;;;2.00;99.90;1.90;97416.00;;;;4623700;30;87281;-61
2022/04/07 07:35:06;;;;;;;9.02;6.43;;;2.10;99.90;2.00;97416.00;;;;4633424;30;87174;-61
2022/04/07 07:37:32;;;;;;;7.97;5.95;;;2.20;99.90;2.00;97396.00;;;;4634362;30;87886;-61
2022/04/07 07:40:11;;;;;;;6.68;5.80;;;2.20;99.90;2.00;97392.00;;;;4633331;30;88383;-61
2022/04/07 07:42:37;;;;;;;6.72;5.75;;;2.10;99.90;1.90;97401.00;;;;4633354;30;86585;-61
2022/04/07 07:45:05;;;;;;;9.45;6.10;;;2.10;99.90;1.90;97406.00;;;;4633063;30;87190;-61
2022/04/07 07:47:32;;;;;;;9.93;6.72;;;2.10;99.90;1.90;97408.00;;;;4634129;30;87647;-62
2022/04/07 07:49:59;;;;;;;9.07;6.38;;;2.20;99.90;1.90;97401.00;;;;4633215;30;87922;-61
2022/04/07 07:52:25;;;;;;;9.80;6.63;;;2.10;99.90;1.90;97398.00;;;;4633638;30;87115;-61
2022/04/07 07:54:52;;;;;;;8.07;7.22;;;2.00;99.90;1.90;97397.00;;;;4633737;30;87177;-61
2022/04/07 07:57:20;;;;;;;9.02;6.75;;;2.10;99.90;2.00;97398.00;;;;4631969;30;87930;-60
2022/04/07 07:59:46;;;;;;;9.65;6.90;;;2.10;99.90;2.00;97404.00;;;;4632853;30;88516;-61
2022/04/07 08:02:12;;;;;;;9.20;6.72;;;2.20;99.90;2.00;97395.00;;;;4633185;30;87550;-61
2022/04/07 08:04:38;;;;;;;9.88;6.72;;;2.20;99.90;2.00;97411.00;;;;4634323;30;87108;-59
2022/04/07 08:07:04;;;;;;;10.40;6.45;;;2.30;99.90;2.10;97388.00;;;;4633679;30;87036;-59
2022/04/07 08:09:30;;;;;;;8.52;6.22;;;2.30;99.90;2.10;97386.00;;;;4633467;30;88351;-59
2022/04/07 08:11:57;;;;;;;8.90;7.05;;;2.30;99.90;2.20;97393.00;;;;4633187;30;87131;-59
2022/04/07 08:14:23;;;;;;;9.07;6.72;;;2.50;99.90;2.30;97374.00;;;;4633134;30;88088;-57
2022/04/07 08:16:49;;;;;;;14.02;8.00;;;2.40;99.90;2.30;97383.00;;;;4633304;30;88171;-59
2022/04/07 08:19:15;;;;;;;9.60;7.70;;;2.50;99.90;2.40;97384.00;;;;4633331;30;87214;-59
2022/04/07 08:21:42;;;;;;;12.20;7.47;;;2.50;99.90;2.50;97381.00;;;;4632829;30;87311;-59
2022/04/07 08:24:08;;;;;;;13.68;7.88;;;2.50;99.90;2.60;97377.00;;;;4636638;30;87553;-59
2022/04/07 08:26:34;;;;;;;11.30;9.13;;;2.60;99.90;2.40;97375.00;;;;4632770;30;87786;-57
2022/04/07 08:29:01;;;;;;;10.25;9.15;;;2.50;99.90;2.40;97382.00;;;;4632775;30;88435;-59
2022/04/07 08:31:27;;;;;;;13.88;9.15;;;2.60;99.90;2.40;97374.00;;;;4634073;30;86310;-59
2022/04/07 08:33:53;;;;;;;13.25;10.20;;;2.60;99.90;2.50;97378.00;;;;4633953;30;87026;-59
2022/04/07 08:36:19;;;;;;;13.88;10.15;;;2.60;99.90;2.50;97367.00;;;;4631991;30;88704;-59
2022/04/07 08:38:45;;;;;;;14.32;10.45;;;2.60;99.90;2.60;97356.00;;;;4632215;30;88029;-59
2022/04/07 08:41:12;;;;;;;13.63;11.13;;;2.70;99.90;2.60;97359.00;;;;4631850;30;87226;-59
2022/04/07 08:43:42;;;;;;;14.02;11.00;;;2.60;99.90;2.60;97369.00;;;;4631219;30;87176;-58
2022/04/07 08:46:11;;;;;;;13.40;12.00;;;2.60;99.90;2.70;97357.00;;;;4631905;30;88752;-60
2022/04/07 08:48:43;;;;;;;14.77;11.75;;;2.70;99.90;2.70;97350.00;;;;4631748;30;87438;-59
2022/04/07 08:51:11;;;;;;;14.02;11.85;;;2.70;99.90;2.70;97362.00;;;;4632415;30;87151;-61
2022/04/07 08:53:39;;;;;;;16.73;12.50;;;2.70;99.90;2.70;97355.00;;;;4630908;30;87100;-59
2022/04/07 08:56:08;;;;;;;14.25;11.90;;;2.80;99.90;2.90;97341.00;;;;4631657;30;86846;-59
2022/04/07 08:58:34;;;;;;;15.32;12.30;;;2.90;99.90;2.90;97341.00;;;;4630560;30;87075;-60
2022/04/07 09:01:00;;;;;;;13.63;12.15;;;3.00;99.90;2.90;97343.00;;;;4631110;30;87439;-62
2022/04/07 09:03:28;;;;;;;15.90;12.20;;;3.00;99.90;3.00;97336.00;;;;4631747;30;88001;-60
2022/04/07 09:06:00;;;;;;;17.05;13.15;;;3.00;99.90;3.00;97324.00;;;;4632172;30;88704;-58
2022/04/07 09:08:40;;;;;;;17.45;12.90;;;3.10;99.90;3.00;97330.00;;;;4632253;30;87863;-61
2022/04/07 09:11:08;;;;;;;19.35;14.10;;;3.00;99.90;3.10;97320.00;;;;4626719;30;86985;-57
2022/04/07 09:13:40;;;;;;;17.35;13.73;;;3.10;99.90;3.10;97331.00;;;;4630961;30;88201;-59
2022/04/07 09:16:11;;;;;;;19.45;14.32;;;3.10;99.90;3.10;97333.00;;;;4627201;30;89351;-58
2022/04/07 09:18:38;;;;;;;19.25;14.80;;;3.10;99.90;3.10;97338.00;;;;4632303;30;87475;-59
2022/04/07 09:21:06;;;;;;;18.77;15.05;;;3.10;99.90;3.10;97330.00;;;;4659768;30;86615;-60
2022/04/07 09:23:40;;;;;;;21.25;15.10;;;3.10;99.90;3.10;97324.00;;;;4632048;30;87352;-60
2022/04/07 09:26:15;;;;;;;17.17;14.75;;;3.10;99.90;3.10;97327.00;;;;4631466;30;88891;-61
2022/04/07 09:28:42;;;;;;;17.40;15.07;;;3.10;99.90;3.10;97334.00;;;;4631316;30;88318;-60
2022/04/07 09:31:16;;;;;;;17.63;14.50;;;3.20;99.90;3.20;97333.00;;;;4632150;30;87108;-59
2022/04/07 09:33:54;;;;;;;19.30;14.57;;;3.20;99.90;3.30;97324.00;;;;4632046;30;87005;-61
2022/04/07 09:36:22;;;;;;;17.65;14.90;;;3.40;99.90;3.40;97311.00;;;;4631561;30;87739;-60
2022/04/07 09:38:51;;;;;;;19.08;14.50;;;3.50;99.90;3.50;97318.00;;;;4631193;30;87518;-60
2022/04/07 09:41:21;;;;;;;20.15;15.73;;;3.60;99.90;3.70;97310.00;;;;4630880;30;87387;-60
2022/04/07 09:43:58;;;;;;;19.58;14.80;;;3.70;99.90;3.70;97303.00;;;;4631387;30;87380;-60
2022/04/07 09:46:35;;;;;;;18.85;13.88;;;3.80;99.90;3.90;97306.00;;;;4632232;30;88079;-61
2022/04/07 09:49:07;;;;;;;18.88;13.98;;;3.90;99.90;4.10;97300.00;;;;4632355;30;87859;-62
2022/04/07 09:51:47;;;;;;;17.95;13.60;;;4.00;99.90;4.10;97305.00;;;;4632101;30;86978;-63
2022/04/07 09:54:16;;;;;;;17.42;14.07;;;4.10;99.90;4.20;97305.00;;;;4629554;30;88117;-61
2022/04/07 09:56:49;;;;;;;18.52;14.25;;;4.10;99.90;4.20;97301.00;;;;4631452;30;88680;-60
2022/04/07 09:59:19;;;;;;;17.05;14.20;;;4.20;99.90;4.20;97305.00;;;;4631116;30;87256;-60
2022/04/07 10:01:47;;;;;;;16.42;14.55;;;4.20;99.90;4.30;97294.00;;;;4630630;30;87561;-61
2022/04/07 10:04:14;;;;;;;17.48;15.55;;;4.30;99.90;4.30;97294.00;;;;4631646;30;87326;-61
2022/04/07 10:06:40;;;;;;;16.95;15.15;;;4.30;99.90;4.20;97298.00;;;;4631306;30;87901;-61
2022/04/07 10:09:09;;;;;;;21.23;15.27;;;4.30;99.90;4.30;97290.00;;;;4630129;30;87275;-60
2022/04/07 10:11:36;;;;;;;17.75;14.63;;;4.30;99.90;4.40;97298.00;;;;4631204;30;86343;-60
2022/04/07 10:14:03;;;;;;;16.25;13.95;;;4.50;99.90;4.40;97294.00;;;;4633553;30;87129;-61
2022/04/07 10:16:30;;;;;;;19.08;15.25;;;4.50;99.90;4.40;97304.00;;;;4633781;30;87658;-59
2022/04/07 10:19:31;;;;;;;18.13;14.98;;;4.40;99.90;4.50;97303.00;;;;4633414;30;87972;-60
2022/04/07 10:22:34;;;;;;;17.73;15.25;;;4.50;99.90;4.60;97296.00;;;;4632124;30;87004;-60
2022/04/07 10:25:03;;;;;;;17.35;14.48;;;4.60;99.90;4.70;97289.00;;;;4616602;30;87155;-60
2022/04/07 10:27:34;;;;;;;18.95;14.43;;;4.70;99.90;4.80;97306.00;;;;4633156;30;90082;-61
2022/04/07 10:30:06;;;;;;;17.87;14.80;;;4.70;99.90;4.70;97300.00;;;;4632970;30;88598;-61
2022/04/07 10:32:59;;;;;;;18.15;14.75;;;4.80;99.90;4.80;97301.00;;;;4636287;30;87101;-61
2022/04/07 10:35:34;;;;;;;19.42;15.48;;;4.80;99.90;4.90;97295.00;;;;4631350;30;88167;-62
2022/04/07 10:38:07;;;;;;;20.13;15.25;;;4.80;99.90;4.80;97291.00;;;;4630460;30;87994;-60
2022/04/07 10:40:49;;;;;;;19.13;15.25;;;4.90;99.90;4.90;97298.00;;;;4633123;30;87429;-62
2022/04/07 10:43:14;;;;;;;;;;;4.90;99.90;4.90;97294.00;;;;4634946;30;87783;-60
2022/04/07 10:45:43;;;;;;;19.00;14.27;;;5.00;99.90;5.20;97280.00;;;;4634990;30;88150;-60
2022/04/07 10:48:25;;;;;;;19.75;14.90;;;5.30;99.90;5.30;97291.00;;;;4633570;30;88559;-61
2022/04/07 10:51:08;;;;;;;17.98;14.43;;;5.40;99.90;5.60;97288.00;;;;4633499;30;87430;-62
2022/04/07 10:53:52;;;;;;;22.10;16.20;;;5.60;99.90;5.60;97278.00;;;;4633124;30;87578;-62
2022/04/07 10:56:34;;;;;;;19.77;15.48;;;5.60;99.90;5.70;97280.00;;;;4633565;30;87396;-61
2022/04/07 10:59:24;;;;;;;19.80;15.13;;;5.70;99.90;5.80;97278.00;;;;4632678;30;88776;-61
2022/04/07 11:01:57;;;;;;;17.65;14.52;;;5.80;99.90;6.00;97280.00;;;;4633293;30;87405;-61
2022/04/07 11:04:23;;;;;;;21.08;15.65;;;6.00;99.90;6.00;97279.00;;;;4634057;30;86370;-61
2022/04/07 11:07:07;;;;;;;19.10;14.82;;;6.10;99.90;6.10;97277.00;;;;4633441;30;87022;-61
2022/04/07 11:10:13;;;;;;;18.17;14.23;;;6.10;99.90;6.20;97254.00;;;;4633254;30;88728;-60
2022/04/07 11:13:00;;;;;;;19.75;14.57;;;6.30;99.90;6.20;97254.00;;;;4631801;30;89028;-60
2022/04/07 11:15:51;;;;;;;20.08;15.02;;;6.30;99.90;6.00;97252.00;;;;4633115;30;87304;-60
2022/04/07 11:18:58;;;;;;;20.77;15.85;;;6.10;99.90;6.10;97245.00;;;;4631239;30;87362;-59
2022/04/07 11:21:25;;;;;;;16.83;14.13;;;6.10;99.90;6.10;97252.00;;;;4619808;30;88949;-61
2022/04/07 11:23:56;;;;;;;18.90;15.80;;;6.10;99.90;6.10;97241.00;;;;4631713;30;87691;-60
2022/04/07 11:26:26;;;;;;;17.70;14.57;;;6.20;99.90;6.10;97239.00;;;;4633006;30;87560;-60
2022/04/07 11:29:10;;;;;;;20.17;15.98;;;6.10;99.90;6.10;97231.00;;;;4631484;30;86990;-59
2022/04/07 11:31:48;;;;;;;21.15;16.10;;;6.10;99.90;6.10;97245.00;;;;4625005;30;86890;-54
2022/04/07 11:34:39;;;;;;;21.27;16.25;;;6.20;99.90;6.20;97235.00;;;;4632010;30;87993;-57
2022/04/07 11:37:16;;;;;;;22.98;15.88;;;6.20;99.90;6.30;97245.00;;;;4631317;30;86976;-57
2022/04/07 11:39:47;;;;;;;23.92;17.58;;;6.30;99.90;6.30;97241.00;;;;4632205;30;87975;-57
2022/04/07 11:42:17;;;;;;;20.05;16.98;;;6.40;99.90;6.30;97240.00;;;;4632913;30;87730;-58
2022/04/07 11:44:45;;;;;;;22.80;17.90;;;6.30;99.90;6.40;97242.00;;;;4633079;30;88510;-59
2022/04/07 11:47:41;;;;;;;22.08;17.55;;;6.40;99.90;6.40;97235.00;;;;4646295;30;87642;-57
2022/04/07 11:50:09;;;;;;;20.58;16.95;;;6.50;99.90;6.60;97227.00;;;;4633296;30;87041;-57
2022/04/07 11:52:36;;;;;;;24.65;17.02;;;6.70;99.90;6.80;97234.00;;;;4632559;30;87603;-57
2022/04/07 11:55:06;;;;;;;22.95;17.08;;;6.90;99.90;7.00;97237.00;;;;4632069;30;87261;-53
2022/04/07 11:57:34;;;;;;;24.52;17.83;;;7.00;99.90;7.20;97227.00;;;;4631785;30;86645;-57
2022/04/07 12:00:04;;;;;;;23.05;17.98;;;7.20;99.90;7.30;97223.00;;;;4630795;30;87243;-59
2022/04/07 12:02:38;;;;;;;20.90;16.40;;;7.40;99.90;7.40;97238.00;;;;4631727;30;87898;-55
2022/04/07 12:05:06;;;;;;;22.40;17.77;;;7.40;99.90;7.60;97229.00;;;;4632084;30;88386;-55
2022/04/07 12:07:32;;;;;;;21.55;16.90;;;7.40;99.90;7.50;97225.00;;;;4632399;30;87054;-56